Time;durP1;ratioP1;P1;durP2;ratioP2;P2;SDS_P1;SDS_P2;PMS_P1;PMS_P2;Temp;Humidity;BMP_temperature;BMP_pressure;BME280_temperature;BME280_humidity;BME280_pressure;Samples;Min_cycle;Max_cycle;Signal;HPM_P1;HPM_P2
2023/08/16 00:00:14;;;;;;;3.97;1.35;;;21.00;99.90;;;;;;5032583;28;20027;-65
2023/08/16 00:02:40;;;;;;;2.75;1.73;;;20.70;99.90;;;;;;5032871;28;20029;-65
2023/08/16 00:05:06;;;;;;;1.92;1.30;;;20.50;99.90;;;;;;5032384;28;20035;-65
2023/08/16 00:07:34;;;;;;;4.60;1.83;;;20.30;99.90;;;;;;5033608;28;20029;-64
2023/08/16 00:10:00;;;;;;;3.05;1.65;;;20.20;99.90;;;;;;5032267;28;20103;-64
2023/08/16 00:12:26;;;;;;;5.68;1.73;;;20.10;99.90;;;;;;5032819;28;20104;-64
2023/08/16 00:14:52;;;;;;;3.45;2.03;;;20.30;99.90;;;;;;5033196;28;20033;-64
2023/08/16 00:17:17;;;;;;;3.25;1.50;;;20.30;99.90;;;;;;5032849;28;20083;-64
2023/08/16 00:19:43;;;;;;;6.30;1.63;;;20.40;99.90;;;;;;5033346;28;20053;-64
2023/08/16 00:22:09;;;;;;;6.78;1.60;;;20.30;99.90;;;;;;5033024;28;20036;-64
2023/08/16 00:24:35;;;;;;;5.10;1.65;;;20.40;99.90;;;;;;5032778;28;20045;-64
2023/08/16 00:27:01;;;;;;;3.38;1.60;;;20.50;99.90;;;;;;5033204;28;20508;-65
2023/08/16 00:29:27;;;;;;;6.07;1.80;;;20.50;99.90;;;;;;5033110;28;20124;-64
2023/08/16 00:31:52;;;;;;;5.95;1.40;;;20.50;99.90;;;;;;5031794;28;20038;-64
2023/08/16 00:34:18;;;;;;;2.72;1.60;;;20.40;99.90;;;;;;5047185;28;20052;-64
2023/08/16 00:36:44;;;;;;;4.38;1.48;;;20.40;99.90;;;;;;5033100;28;20041;-64
2023/08/16 00:39:09;;;;;;;1.83;1.30;;;20.50;99.90;;;;;;5032983;28;20037;-65
2023/08/16 00:41:36;;;;;;;2.33;1.58;;;20.50;99.90;;;;;;5033041;28;20036;-64
2023/08/16 00:44:01;;;;;;;3.38;1.58;;;20.50;99.90;;;;;;5032049;28;20025;-64
2023/08/16 00:46:30;;;;;;;3.20;1.58;;;20.40;99.90;;;;;;5033038;28;20029;-64
2023/08/16 00:48:56;;;;;;;1.83;1.10;;;20.40;99.90;;;;;;5031933;28;20034;-64
2023/08/16 00:51:22;;;;;;;1.42;1.00;;;20.20;99.90;;;;;;5031590;28;20407;-64
2023/08/16 00:53:48;;;;;;;2.38;1.30;;;20.20;99.90;;;;;;5032042;28;20036;-64
2023/08/16 00:56:15;;;;;;;6.25;1.70;;;20.20;99.90;;;;;;5031547;28;20026;-64
2023/08/16 00:58:42;;;;;;;3.33;1.63;;;20.20;99.90;;;;;;5031514;28;20021;-64
2023/08/16 01:01:10;;;;;;;2.75;1.73;;;20.30;99.90;;;;;;5031260;28;20079;-64
2023/08/16 01:03:36;;;;;;;3.75;1.40;;;20.30;99.90;;;;;;5029985;28;20117;-64
2023/08/16 01:06:04;;;;;;;4.35;1.80;;;20.30;99.90;;;;;;5024624;28;20036;-64
2023/08/16 01:08:32;;;;;;;3.55;1.40;;;20.40;99.90;;;;;;5029559;28;20682;-64
2023/08/16 01:11:07;;;;;;;4.60;1.83;;;20.30;99.90;;;;;;5027455;28;20032;-64
2023/08/16 01:14:00;;;;;;;3.03;1.60;;;20.20;99.90;;;;;;5011638;28;20025;-64
2023/08/16 01:16:28;;;;;;;3.15;1.40;;;20.20;99.90;;;;;;5012544;28;20034;-64
2023/08/16 01:18:55;;;;;;;2.88;1.60;;;20.10;99.90;;;;;;5011275;28;20105;-64
2023/08/16 01:21:23;;;;;;;3.20;1.73;;;20.00;99.90;;;;;;5012301;28;20092;-64
2023/08/16 01:24:02;;;;;;;4.28;1.77;;;19.80;99.90;;;;;;5012202;28;20088;-62
2023/08/16 01:26:36;;;;;;;2.97;1.60;;;19.90;99.90;;;;;;5011014;28;20073;-63
2023/08/16 01:29:05;;;;;;;2.75;1.52;;;19.90;99.90;;;;;;5010012;28;20030;-63
2023/08/16 01:31:34;;;;;;;2.60;1.60;;;20.00;99.90;;;;;;5012289;28;20052;-63
2023/08/16 01:34:01;;;;;;;2.03;1.50;;;20.10;99.90;;;;;;5020206;28;20045;-63
2023/08/16 01:36:27;;;;;;;3.40;2.13;;;20.20;99.90;;;;;;5030421;28;20017;-63
2023/08/16 01:38:55;;;;;;;6.05;1.80;;;20.20;99.90;;;;;;5031749;28;20061;-62
2023/08/16 01:41:30;;;;;;;3.13;1.60;;;20.10;99.90;;;;;;5027099;28;20103;-62
2023/08/16 01:43:56;;;;;;;5.80;1.70;;;20.20;99.90;;;;;;5011083;28;20021;-63
2023/08/16 01:46:24;;;;;;;3.00;1.65;;;20.20;99.90;;;;;;5010848;28;20197;-63
2023/08/16 01:48:52;;;;;;;4.32;2.13;;;20.20;99.90;;;;;;5011671;28;20045;-63
2023/08/16 01:51:26;;;;;;;6.22;1.63;;;20.10;99.90;;;;;;5068329;28;20403;-63
2023/08/16 01:53:53;;;;;;;4.20;2.10;;;20.10;99.90;;;;;;5046047;28;20048;-63
2023/08/16 01:56:20;;;;;;;2.90;1.83;;;20.10;99.90;;;;;;5046791;28;20029;-62
2023/08/16 01:58:47;;;;;;;16.13;2.22;;;20.10;99.90;;;;;;5047734;28;20029;-63
2023/08/16 02:01:13;;;;;;;5.82;2.03;;;20.00;99.90;;;;;;5047951;28;20044;-62
2023/08/16 02:03:40;;;;;;;4.50;2.15;;;19.80;99.90;;;;;;5046811;28;20104;-63
2023/08/16 02:06:06;;;;;;;3.05;1.55;;;19.60;99.90;;;;;;5046689;28;20037;-63
2023/08/16 02:08:31;;;;;;;4.40;1.98;;;19.60;99.90;;;;;;5047497;28;20033;-63
2023/08/16 02:10:57;;;;;;;3.97;1.77;;;19.70;99.90;;;;;;5048164;28;20052;-63
2023/08/16 02:13:23;;;;;;;2.45;1.92;;;19.70;99.90;;;;;;5046833;28;20029;-62
2023/08/16 02:15:49;;;;;;;2.97;1.77;;;19.70;99.90;;;;;;5047699;28;20055;-62
2023/08/16 02:18:14;;;;;;;6.00;1.92;;;19.60;99.90;;;;;;5047322;28;20031;-62
2023/08/16 02:20:41;;;;;;;3.90;2.17;;;19.60;99.90;;;;;;5047827;28;20029;-63
2023/08/16 02:23:08;;;;;;;4.20;2.00;;;19.70;99.90;;;;;;5046728;28;20033;-62
2023/08/16 02:25:34;;;;;;;3.95;1.85;;;19.70;99.90;;;;;;5047382;28;20041;-63
2023/08/16 02:28:00;;;;;;;4.72;2.20;;;19.80;99.90;;;;;;5046179;28;20022;-62
2023/08/16 02:30:26;;;;;;;5.10;2.53;;;19.80;99.90;;;;;;5047211;28;20026;-63
2023/08/16 02:32:54;;;;;;;3.60;1.95;;;19.90;99.90;;;;;;5046914;28;20092;-62
2023/08/16 02:35:21;;;;;;;4.18;2.20;;;19.80;99.90;;;;;;5047388;28;20021;-62
2023/08/16 02:37:47;;;;;;;4.30;2.65;;;19.80;99.90;;;;;;5046051;28;20037;-62
2023/08/16 02:40:13;;;;;;;5.05;2.92;;;19.80;99.90;;;;;;5047091;28;20496;-63
2023/08/16 02:42:38;;;;;;;4.82;2.58;;;19.80;99.90;;;;;;5046416;28;20087;-63
2023/08/16 02:45:05;;;;;;;8.00;2.45;;;19.80;99.90;;;;;;5047031;28;20489;-62
2023/08/16 02:47:31;;;;;;;5.10;1.90;;;19.80;99.90;;;;;;5047409;28;20106;-63
2023/08/16 02:49:56;;;;;;;4.18;2.15;;;19.80;99.90;;;;;;5045431;28;20469;-62
2023/08/16 02:52:22;;;;;;;5.72;2.40;;;19.80;99.90;;;;;;5045783;28;20037;-63
2023/08/16 02:54:48;;;;;;;5.32;2.03;;;19.90;99.90;;;;;;5047018;28;20473;-62
2023/08/16 02:57:16;;;;;;;5.05;2.28;;;19.80;99.90;;;;;;5039868;28;20154;-63
2023/08/16 02:59:46;;;;;;;4.72;2.35;;;19.90;99.90;;;;;;5042542;28;20481;-62
2023/08/16 03:02:13;;;;;;;4.05;2.33;;;19.90;99.90;;;;;;5034974;28;20034;-62
2023/08/16 03:04:39;;;;;;;4.63;2.45;;;19.80;99.90;;;;;;5032891;28;20025;-62
2023/08/16 03:07:09;;;;;;;4.03;2.60;;;19.80;99.90;;;;;;5033521;28;20029;-63
2023/08/16 03:09:36;;;;;;;4.90;2.42;;;19.70;99.90;;;;;;5033331;28;20032;-62
2023/08/16 03:12:04;;;;;;;4.88;2.78;;;19.80;99.90;;;;;;5033291;28;20120;-63
2023/08/16 03:14:30;;;;;;;4.57;2.17;;;19.90;99.90;;;;;;5031279;28;20116;-63
2023/08/16 03:16:57;;;;;;;5.13;2.30;;;19.90;99.90;;;;;;5033292;28;20438;-62
2023/08/16 03:19:23;;;;;;;5.15;2.28;;;19.90;99.90;;;;;;5033342;28;20068;-62
2023/08/16 03:21:49;;;;;;;4.60;2.42;;;19.80;99.90;;;;;;5033164;28;20025;-62
2023/08/16 03:24:15;;;;;;;7.07;3.03;;;19.80;99.90;;;;;;5032301;28;20084;-63
2023/08/16 03:26:41;;;;;;;4.45;2.38;;;19.90;99.90;;;;;;5033208;28;20025;-62
2023/08/16 03:29:06;;;;;;;5.68;2.33;;;19.90;99.90;;;;;;5032805;28;20105;-62
2023/08/16 03:31:32;;;;;;;8.75;3.30;;;20.00;99.90;;;;;;5032927;28;20037;-62
2023/08/16 03:33:58;;;;;;;4.10;2.20;;;20.00;99.90;;;;;;5047254;28;20021;-63
2023/08/16 03:36:24;;;;;;;14.20;2.72;;;20.10;99.90;;;;;;5032996;28;20082;-63
2023/08/16 03:38:50;;;;;;;12.40;3.03;;;20.10;99.90;;;;;;5032796;28;20037;-63
2023/08/16 03:41:16;;;;;;;5.22;2.42;;;20.10;99.90;;;;;;5015017;28;20500;-63
2023/08/16 03:43:42;;;;;;;5.00;2.50;;;20.10;99.90;;;;;;5031887;28;20037;-63
2023/08/16 03:46:07;;;;;;;10.65;2.42;;;20.10;99.90;;;;;;5032850;28;20037;-63
2023/08/16 03:48:33;;;;;;;5.00;2.03;;;20.00;99.90;;;;;;5032820;28;20029;-63
2023/08/16 03:50:59;;;;;;;6.18;2.72;;;20.00;99.90;;;;;;5032397;28;20029;-63
2023/08/16 03:53:25;;;;;;;3.88;2.10;;;20.10;99.90;;;;;;5032108;28;20056;-63
2023/08/16 03:55:58;;;;;;;4.63;2.60;;;20.00;99.90;;;;;;5031312;28;20041;-63
2023/08/16 03:58:24;;;;;;;11.05;3.05;;;19.90;99.90;;;;;;5031310;28;20036;-63
2023/08/16 04:00:51;;;;;;;7.82;3.28;;;20.00;99.90;;;;;;5032527;28;20031;-63
2023/08/16 04:03:18;;;;;;;5.55;2.35;;;20.10;99.90;;;;;;5027693;28;20033;-63
2023/08/16 04:05:44;;;;;;;4.47;2.55;;;20.00;99.90;;;;;;5029980;28;20099;-63
2023/08/16 04:08:10;;;;;;;8.60;2.90;;;19.90;99.90;;;;;;5032424;28;20250;-63
2023/08/16 04:10:36;;;;;;;6.07;2.70;;;19.90;99.90;;;;;;5031945;28;20025;-63
2023/08/16 04:13:03;;;;;;;6.75;2.90;;;20.00;99.90;;;;;;5030774;28;20037;-63
2023/08/16 04:15:29;;;;;;;7.07;3.22;;;20.10;99.90;;;;;;5032203;28;20025;-63
2023/08/16 04:17:55;;;;;;;7.97;3.10;;;20.10;99.90;;;;;;5031928;28;20025;-63
2023/08/16 04:20:22;;;;;;;5.10;2.35;;;19.90;99.90;;;;;;5032051;28;20112;-65
2023/08/16 04:22:49;;;;;;;5.05;2.85;;;20.00;99.90;;;;;;5031362;28;20029;-63
2023/08/16 04:25:15;;;;;;;5.43;2.85;;;20.00;99.90;;;;;;5031748;28;20133;-63
2023/08/16 04:27:42;;;;;;;5.72;2.83;;;20.00;99.90;;;;;;5030565;28;20045;-63
2023/08/16 04:30:09;;;;;;;6.43;3.10;;;20.00;99.90;;;;;;5031843;28;20045;-63
2023/08/16 04:32:36;;;;;;;7.10;3.50;;;19.90;99.90;;;;;;5030059;28;20041;-63
2023/08/16 04:35:05;;;;;;;7.68;2.83;;;20.00;99.90;;;;;;5030535;28;20105;-63
2023/08/16 04:37:31;;;;;;;5.07;2.38;;;20.00;99.90;;;;;;5031839;28;20026;-63
2023/08/16 04:39:56;;;;;;;5.57;2.90;;;20.20;99.90;;;;;;5031460;28;20046;-63
2023/08/16 04:42:22;;;;;;;5.13;2.63;;;20.30;99.90;;;;;;5030957;28;20033;-63
2023/08/16 04:44:48;;;;;;;9.52;2.50;;;20.40;99.90;;;;;;5031536;28;20025;-63
2023/08/16 04:47:14;;;;;;;5.97;3.20;;;20.60;99.90;;;;;;5031485;28;20069;-63
2023/08/16 04:49:40;;;;;;;5.55;2.67;;;20.60;99.90;;;;;;5031364;28;20025;-63
2023/08/16 04:52:06;;;;;;;5.28;2.80;;;20.50;99.90;;;;;;5031249;28;20068;-63
2023/08/16 04:54:31;;;;;;;8.05;2.75;;;20.60;99.90;;;;;;5047727;23;20073;-56
2023/08/16 04:56:58;;;;;;;7.70;2.40;;;20.60;99.90;;;;;;4992005;28;20037;-56
2023/08/16 04:59:24;;;;;;;5.22;2.72;;;20.60;99.90;;;;;;4990884;28;20044;-55
2023/08/16 05:01:50;;;;;;;8.02;3.22;;;20.50;99.90;;;;;;4990759;28;20030;-56
2023/08/16 05:04:15;;;;;;;6.15;2.63;;;20.30;99.90;;;;;;4991058;28;20034;-55
2023/08/16 05:06:41;;;;;;;5.95;3.05;;;20.30;99.90;;;;;;4992123;28;20470;-57
2023/08/16 05:09:07;;;;;;;7.15;2.90;;;20.30;99.90;;;;;;4991823;28;20096;-58
2023/08/16 05:11:33;;;;;;;5.05;2.58;;;20.20;99.90;;;;;;4991937;28;20038;-56
2023/08/16 05:13:59;;;;;;;6.72;2.53;;;20.10;99.90;;;;;;4991165;28;20066;-57
2023/08/16 05:16:25;;;;;;;5.93;3.35;;;20.10;99.90;;;;;;4974822;28;20031;-56
2023/08/16 05:18:52;;;;;;;6.78;3.00;;;20.10;99.90;;;;;;4987287;28;20027;-56
2023/08/16 05:21:19;;;;;;;7.72;3.05;;;20.20;99.90;;;;;;4972377;28;20041;-56
2023/08/16 05:23:44;;;;;;;7.03;3.55;;;20.20;99.90;;;;;;4971524;28;20475;-56
2023/08/16 05:26:10;;;;;;;8.60;2.75;;;20.30;99.90;;;;;;4972120;28;20045;-56
2023/08/16 05:28:36;;;;;;;5.30;2.92;;;20.30;99.90;;;;;;4987142;28;20396;-56
2023/08/16 05:31:09;;;;;;;8.50;2.72;;;20.40;99.90;;;;;;4972169;28;20035;-56
2023/08/16 05:33:36;;;;;;;6.60;3.08;;;20.60;99.90;;;;;;4971499;28;20391;-54
2023/08/16 05:36:03;;;;;;;4.85;2.70;;;20.70;99.90;;;;;;4971723;28;20069;-57
2023/08/16 05:38:29;;;;;;;7.07;2.70;;;20.80;99.90;;;;;;4986831;28;20031;-55
2023/08/16 05:40:54;;;;;;;6.97;3.20;;;20.60;99.90;;;;;;4972012;28;20114;-59
2023/08/16 05:43:20;;;;;;;3.92;2.38;;;20.70;99.90;;;;;;4971429;28;20061;-57
2023/08/16 05:45:46;;;;;;;10.75;3.80;;;20.70;99.90;;;;;;4971857;28;20022;-58
2023/08/16 05:48:12;;;;;;;5.07;2.80;;;20.80;99.90;;;;;;4986864;28;20080;-58
2023/08/16 05:50:38;;;;;;;6.07;3.33;;;20.80;99.90;;;;;;4986678;28;20031;-57
2023/08/16 05:53:04;;;;;;;6.38;3.60;;;20.50;99.90;;;;;;4971012;28;20515;-56
2023/08/16 05:55:30;;;;;;;6.75;3.78;;;20.50;99.90;;;;;;4971569;28;20031;-56
2023/08/16 05:57:56;;;;;;;7.80;3.35;;;20.40;99.90;;;;;;4971907;28;20031;-55
2023/08/16 06:00:21;;;;;;;7.47;3.60;;;20.60;99.90;;;;;;4971423;28;20038;-57
2023/08/16 06:02:47;;;;;;;6.28;3.20;;;20.60;99.90;;;;;;4970660;28;20106;-58
2023/08/16 06:05:13;;;;;;;6.53;3.58;;;20.50;99.90;;;;;;4971678;28;20050;-55
2023/08/16 06:07:39;;;;;;;9.88;3.95;;;20.50;99.90;;;;;;4971788;28;20093;-57
2023/08/16 06:10:06;;;;;;;8.07;3.85;;;20.40;99.90;;;;;;4970120;28;20431;-55
2023/08/16 06:12:32;;;;;;;5.43;3.15;;;20.60;99.90;;;;;;4970882;28;20054;-56
2023/08/16 06:14:58;;;;;;;7.97;4.40;;;20.70;99.90;;;;;;4971701;28;20483;-57
2023/08/16 06:17:24;;;;;;;10.88;4.10;;;20.60;99.90;;;;;;4971909;28;20030;-56
2023/08/16 06:19:50;;;;;;;7.32;3.90;;;20.80;99.90;;;;;;4970490;28;20053;-57
2023/08/16 06:22:16;;;;;;;7.10;3.90;;;20.80;99.90;;;;;;4971569;28;20603;-57
2023/08/16 06:24:42;;;;;;;9.18;3.88;;;20.80;99.90;;;;;;4971514;28;20089;-57
2023/08/16 06:27:08;;;;;;;6.57;2.95;;;20.90;99.90;;;;;;4970385;28;20111;-56
2023/08/16 06:29:35;;;;;;;6.32;3.15;;;21.10;99.90;;;;;;4971755;28;20033;-57
2023/08/16 06:32:02;;;;;;;6.30;3.08;;;21.20;99.90;;;;;;4971468;28;20387;-57
2023/08/16 06:34:29;;;;;;;6.28;3.55;;;21.40;99.90;;;;;;4968853;28;20042;-58
2023/08/16 06:36:55;;;;;;;7.60;3.10;;;21.50;99.90;;;;;;4972768;28;20675;-56
2023/08/16 06:39:21;;;;;;;4.63;3.13;;;21.50;99.90;;;;;;4975555;28;20030;-57
2023/08/16 06:41:48;;;;;;;8.52;3.40;;;21.60;99.90;;;;;;4974275;28;20034;-56
2023/08/16 06:44:14;;;;;;;6.57;3.53;;;21.20;99.90;;;;;;4974481;28;20041;-57
2023/08/16 06:46:40;;;;;;;4.68;3.00;;;21.30;99.90;;;;;;4975330;28;20122;-57
2023/08/16 06:49:06;;;;;;;5.57;2.97;;;21.60;99.90;;;;;;4974578;28;20041;-60
2023/08/16 06:51:31;;;;;;;6.35;3.30;;;21.70;99.90;;;;;;4975068;28;20038;-59
2023/08/16 06:53:57;;;;;;;7.15;3.42;;;21.90;99.90;;;;;;4974172;28;20026;-60
2023/08/16 06:56:23;;;;;;;6.32;2.80;;;21.90;99.90;;;;;;4970460;28;20039;-59
2023/08/16 06:58:50;;;;;;;4.82;2.60;;;21.90;99.90;;;;;;4955819;28;20047;-60
2023/08/16 07:01:16;;;;;;;8.55;3.72;;;21.90;99.90;;;;;;4970465;28;20027;-59
2023/08/16 07:03:42;;;;;;;7.05;2.75;;;22.10;99.90;;;;;;4980309;28;20093;-59
2023/08/16 07:06:08;;;;;;;22.98;3.50;;;22.10;99.90;;;;;;4973956;28;20085;-59
2023/08/16 07:08:34;;;;;;;10.88;2.47;;;21.90;99.90;;;;;;4974707;28;20038;-59
2023/08/16 07:11:00;;;;;;;6.35;3.17;;;21.80;99.90;;;;;;4971914;28;20062;-59
2023/08/16 07:13:26;;;;;;;9.23;3.55;;;21.80;99.90;;;;;;4972804;28;20058;-60
2023/08/16 07:15:51;;;;;;;8.93;2.35;;;22.00;99.90;;;;;;4974337;28;20110;-60
2023/08/16 07:18:17;;;;;;;5.47;2.38;;;22.10;99.90;;;;;;4974474;28;20030;-59
2023/08/16 07:20:43;;;;;;;3.42;1.80;;;22.10;99.90;;;;;;4974224;28;20053;-59
2023/08/16 07:23:09;;;;;;;2.28;1.33;;;22.10;99.90;;;;;;4973969;28;20034;-60
2023/08/16 07:25:35;;;;;;;4.38;2.33;;;22.20;99.90;;;;;;4974426;28;20471;-59
2023/08/16 07:28:01;;;;;;;4.18;2.00;;;22.30;99.90;;;;;;4974268;28;20368;-60
2023/08/16 07:30:26;;;;;;;5.82;1.60;;;22.50;99.90;;;;;;4974360;28;20045;-61
2023/08/16 07:32:52;;;;;;;2.55;1.60;;;22.50;99.90;;;;;;4973513;28;20038;-61
2023/08/16 07:35:18;;;;;;;3.78;1.50;;;22.60;99.90;;;;;;4992292;28;20466;-62
2023/08/16 07:37:44;;;;;;;4.45;1.60;;;22.70;99.90;;;;;;4993609;28;20471;-61
2023/08/16 07:40:11;;;;;;;5.43;1.77;;;22.80;99.90;;;;;;4992563;28;20042;-61
2023/08/16 07:42:37;;;;;;;2.80;1.50;;;22.90;99.90;;;;;;4993131;28;20030;-62
2023/08/16 07:45:05;;;;;;;3.70;2.00;;;22.90;99.90;;;;;;4993411;28;20039;-61
2023/08/16 07:47:30;;;;;;;2.40;1.25;;;22.90;99.90;;;;;;4993194;28;20034;-61
2023/08/16 07:49:56;;;;;;;1.85;1.20;;;23.10;99.90;;;;;;5007804;28;20037;-61
2023/08/16 07:52:22;;;;;;;4.85;1.30;;;23.30;99.90;;;;;;4992739;28;20403;-61
2023/08/16 07:54:48;;;;;;;4.53;1.70;;;23.40;99.90;;;;;;4993077;28;20026;-61
2023/08/16 07:57:14;;;;;;;6.53;2.75;;;23.40;99.90;;;;;;4993396;28;20084;-61
2023/08/16 07:59:40;;;;;;;3.45;1.40;;;23.60;99.90;;;;;;4978282;28;20398;-61
2023/08/16 08:02:06;;;;;;;4.05;1.48;;;23.50;99.90;;;;;;4973373;28;20030;-61
2023/08/16 08:04:33;;;;;;;1.98;1.00;;;23.40;99.90;;;;;;4979741;28;20655;-61
2023/08/16 08:07:00;;;;;;;3.08;1.38;;;23.40;99.90;;;;;;4973576;28;20034;-62
2023/08/16 08:09:26;;;;;;;2.97;1.20;;;23.30;99.90;;;;;;4988357;28;20054;-61
2023/08/16 08:11:51;;;;;;;2.40;1.55;;;23.40;99.90;;;;;;4973597;28;20065;-61
2023/08/16 08:14:17;;;;;;;3.60;1.08;;;23.60;99.90;;;;;;4972299;28;20055;-60
2023/08/16 08:16:44;;;;;;;2.97;1.30;;;23.80;99.90;;;;;;4971542;28;20023;-60
2023/08/16 08:19:10;;;;;;;2.95;1.65;;;23.90;99.90;;;;;;4971756;28;20467;-60
2023/08/16 08:21:36;;;;;;;3.08;1.50;;;24.10;99.90;;;;;;4971361;28;20526;-59
2023/08/16 08:24:02;;;;;;;2.05;1.33;;;23.90;99.90;;;;;;4969799;28;20034;-60
2023/08/16 08:26:28;;;;;;;6.07;1.65;;;23.90;99.90;;;;;;4973145;28;20023;-58
2023/08/16 08:28:54;;;;;;;6.28;2.70;;;24.20;99.90;;;;;;4973063;28;20039;-58
2023/08/16 08:31:19;;;;;;;6.78;3.40;;;24.40;99.90;;;;;;4973127;28;20023;-59
2023/08/16 08:33:45;;;;;;;6.70;3.03;;;24.40;99.90;;;;;;4977147;28;20458;-59
2023/08/16 08:36:11;;;;;;;9.18;3.00;;;24.60;99.90;;;;;;4992430;28;20034;-59
2023/08/16 08:38:38;;;;;;;7.95;2.92;;;24.70;99.90;;;;;;4992640;28;20034;-59
2023/08/16 08:41:06;;;;;;;7.45;2.95;;;24.60;99.90;;;;;;4992238;28;20037;-59
2023/08/16 08:43:37;;;;;;;6.47;2.80;;;24.80;99.90;;;;;;4991631;28;20026;-59
2023/08/16 08:46:05;;;;;;;4.82;2.60;;;24.80;99.90;;;;;;4991030;28;20049;-59
2023/08/16 08:48:31;;;;;;;3.35;1.73;;;24.70;99.90;;;;;;4992256;28;20043;-59
2023/08/16 08:50:58;;;;;;;6.22;2.08;;;24.80;99.90;;;;;;4991860;28;20041;-59
2023/08/16 08:53:26;;;;;;;5.68;1.85;;;25.10;99.90;;;;;;4985174;28;20104;-59
2023/08/16 08:56:01;;;;;;;4.40;1.48;;;25.20;99.90;;;;;;4971200;28;20027;-59
2023/08/16 08:58:30;;;;;;;4.30;2.08;;;25.30;99.90;;;;;;4972092;28;20038;-59
2023/08/16 09:00:57;;;;;;;5.05;2.03;;;25.50;99.90;;;;;;4985930;28;20043;-59
2023/08/16 09:03:24;;;;;;;5.07;2.20;;;25.70;99.90;;;;;;4969182;28;20144;-59
2023/08/16 09:05:53;;;;;;;4.97;2.22;;;25.40;99.90;;;;;;4972492;28;20462;-59
2023/08/16 09:08:20;;;;;;;5.53;3.05;;;25.20;99.90;;;;;;4970372;28;20039;-59
2023/08/16 09:10:46;;;;;;;4.20;2.50;;;25.50;99.90;;;;;;4971450;28;20034;-59
2023/08/16 09:13:14;;;;;;;3.35;2.00;;;25.40;99.90;;;;;;4970157;28;20034;-59
2023/08/16 09:15:40;;;;;;;3.70;1.80;;;25.60;99.90;;;;;;4970796;28;20058;-59
2023/08/16 09:18:14;;;;;;;4.53;2.35;;;25.90;99.90;;;;;;4972122;28;20041;-59
2023/08/16 09:20:44;;;;;;;2.80;1.90;;;26.00;99.90;;;;;;4971033;28;20031;-59
2023/08/16 09:23:14;;;;;;;5.22;2.80;;;25.80;99.90;;;;;;4971727;28;20491;-59
2023/08/16 09:25:40;;;;;;;3.95;1.55;;;25.60;99.90;;;;;;4967758;28;20030;-58
2023/08/16 09:28:10;;;;;;;5.70;2.40;;;25.50;99.90;;;;;;4969876;28;20039;-58
2023/08/16 09:30:36;;;;;;;4.15;2.30;;;25.60;99.90;;;;;;4971427;28;20751;-59
2023/08/16 09:33:02;;;;;;;4.38;1.77;;;26.10;99.90;;;;;;4970897;28;20035;-49
2023/08/16 09:35:50;;;;;;;7.60;1.85;;;26.00;99.90;;;;;;4985443;28;20026;-51
2023/08/16 09:38:19;;;;;;;6.82;1.55;;;26.20;99.90;;;;;;4970223;28;20114;-54
2023/08/16 09:40:52;;;;;;;3.60;1.88;;;26.40;99.90;;;;;;4970878;28;20031;-54
2023/08/16 09:43:19;;;;;;;5.57;1.92;;;26.20;99.90;;;;;;4946465;28;20042;-53
2023/08/16 09:45:54;;;;;;;3.50;1.52;;;26.60;99.90;;;;;;4971369;28;20066;-51
2023/08/16 09:48:21;;;;;;;3.80;1.35;;;26.70;99.90;;;;;;4971121;28;20392;-54
2023/08/16 09:50:47;;;;;;;2.22;1.20;;;27.00;99.90;;;;;;4953721;28;20182;-57
2023/08/16 09:53:13;;;;;;;2.63;1.20;;;27.20;99.90;;;;;;4970612;28;20046;-57
2023/08/16 09:55:42;;;;;;;3.45;1.65;;;27.00;99.90;;;;;;4970845;28;20030;-58
2023/08/16 09:58:08;;;;;;;2.78;1.45;;;27.40;99.90;;;;;;4970662;28;20030;-57
2023/08/16 10:00:34;;;;;;;4.50;1.48;;;27.30;99.90;;;;;;4969918;28;20117;-57
2023/08/16 10:03:01;;;;;;;3.50;1.88;;;27.30;99.90;;;;;;4969122;28;20031;-58
2023/08/16 10:05:27;;;;;;;7.20;1.92;;;27.60;99.90;;;;;;4985486;28;20046;-56
2023/08/16 10:08:00;;;;;;;3.88;1.67;;;28.10;99.90;;;;;;4970871;28;20117;-56
2023/08/16 10:10:26;;;;;;;2.67;1.40;;;28.30;99.90;;;;;;4971058;28;20107;-55
2023/08/16 10:12:53;;;;;;;4.32;1.42;;;28.00;99.90;;;;;;4973224;28;20064;-57
2023/08/16 10:15:19;;;;;;;2.58;1.35;;;28.30;99.90;;;;;;4974912;28;20118;-54
2023/08/16 10:17:50;;;;;;;3.63;1.40;;;27.70;99.90;;;;;;4974914;28;20158;-57
2023/08/16 10:20:23;;;;;;;5.13;1.80;;;27.80;99.90;;;;;;4973274;28;20035;-55
2023/08/16 10:22:59;;;;;;;3.08;1.30;;;28.10;99.90;;;;;;4974295;28;20037;-57
2023/08/16 10:25:34;;;;;;;2.80;1.38;;;28.10;99.90;;;;;;4974679;28;20027;-57
2023/08/16 10:28:02;;;;;;;2.50;1.02;;;28.10;99.90;;;;;;4974265;28;20399;-55
2023/08/16 10:30:29;;;;;;;5.80;1.38;;;27.60;99.90;;;;;;4974463;28;20511;-57
2023/08/16 10:33:01;;;;;;;2.05;1.10;;;27.30;99.90;;;;;;4954514;28;20361;-55
2023/08/16 10:35:27;;;;;;;2.28;1.00;;;27.60;99.90;;;;;;4969098;28;20034;-55
2023/08/16 10:37:53;;;;;;;1.55;0.90;;;27.90;99.90;;;;;;4953886;28;20222;-54
2023/08/16 10:40:22;;;;;;;1.98;1.33;;;28.10;99.90;;;;;;4954853;28;20027;-51
2023/08/16 10:42:59;;;;;;;1.75;1.00;;;28.40;99.90;;;;;;4953954;28;20093;-57
2023/08/16 10:45:36;;;;;;;3.55;1.52;;;28.60;99.90;;;;;;4967010;28;20037;-55
2023/08/16 10:48:18;;;;;;;2.17;1.15;;;28.20;99.90;;;;;;4973126;28;20134;-54
2023/08/16 10:50:50;;;;;;;2.63;1.58;;;28.30;99.90;;;;;;4974268;28;20035;-53
2023/08/16 10:53:18;;;;;;;4.90;1.25;;;28.60;99.90;;;;;;4972301;28;20084;-53
2023/08/16 10:55:52;;;;;;;2.17;1.20;;;28.90;99.90;;;;;;5017699;22;20494;-58
2023/08/16 10:58:25;;;;;;;2.55;1.40;;;29.30;99.90;;;;;;5018434;28;20477;-58
2023/08/16 11:00:59;;;;;;;2.92;1.67;;;29.20;99.90;;;;;;4995420;28;20061;-54
2023/08/16 11:03:37;;;;;;;3.35;1.55;;;29.60;99.90;;;;;;4998604;28;20037;-57
2023/08/16 11:06:11;;;;;;;3.05;1.50;;;29.40;99.90;;;;;;5031887;28;20519;-56
2023/08/16 11:08:44;;;;;;;2.40;1.33;;;29.70;99.90;;;;;;5032652;28;20028;-58
2023/08/16 11:11:12;;;;;;;6.15;2.95;;;29.70;99.90;;;;;;5009199;28;20045;-56
2023/08/16 11:13:41;;;;;;;3.60;1.60;;;30.00;99.90;;;;;;5008984;28;20057;-57
2023/08/16 11:16:09;;;;;;;3.70;1.75;;;30.10;99.90;;;;;;5012583;28;20037;-56
2023/08/16 11:18:37;;;;;;;2.33;1.35;;;30.20;99.90;;;;;;5012197;28;20021;-55
2023/08/16 11:21:07;;;;;;;3.08;1.48;;;30.10;99.90;;;;;;5012122;28;20046;-58
2023/08/16 11:23:39;;;;;;;2.53;1.30;;;30.00;99.90;;;;;;5011628;28;20042;-58
2023/08/16 11:26:07;;;;;;;5.72;2.00;;;30.50;99.90;;;;;;5012556;28;20380;-57
2023/08/16 11:28:34;;;;;;;2.60;1.40;;;30.40;99.90;;;;;;4994851;28;20033;-56
2023/08/16 11:31:04;;;;;;;7.05;2.00;;;29.50;99.90;;;;;;5012122;28;20045;-55
2023/08/16 11:33:34;;;;;;;5.38;1.52;;;29.40;99.90;;;;;;4994308;28;20026;-56
2023/08/16 11:36:09;;;;;;;2.65;1.50;;;29.90;99.90;;;;;;5011898;28;20025;-54
2023/08/16 11:38:35;;;;;;;2.97;1.45;;;30.30;99.90;;;;;;5012584;28;20029;-57
2023/08/16 11:41:04;;;;;;;2.45;1.35;;;30.40;99.90;;;;;;5012170;28;20030;-51
2023/08/16 11:43:32;;;;;;;2.28;1.20;;;30.30;99.90;;;;;;5011252;28;20505;-54
2023/08/16 11:45:59;;;;;;;3.50;1.77;;;30.30;99.90;;;;;;5012331;28;20038;-56
2023/08/16 11:48:26;;;;;;;2.40;1.02;;;30.60;99.90;;;;;;4994914;28;20440;-69
2023/08/16 11:50:52;;;;;;;3.25;1.67;;;30.80;99.90;;;;;;4994002;28;20026;-69
2023/08/16 11:53:20;;;;;;;8.07;2.60;;;31.00;99.90;;;;;;4977669;28;20404;-68
2023/08/16 11:56:11;;;;;;;5.25;1.42;;;31.30;99.90;;;;;;5011513;28;20040;-68
2023/08/16 11:58:45;;;;;;;5.50;1.73;;;31.00;99.90;;;;;;4994753;28;20091;-68
2023/08/16 12:01:14;;;;;;;4.32;1.45;;;30.70;99.90;;;;;;4994518;28;20028;-68
2023/08/16 12:03:44;;;;;;;2.42;1.27;;;30.20;99.90;;;;;;4993701;28;20233;-67
2023/08/16 12:06:11;;;;;;;2.97;1.48;;;30.60;99.90;;;;;;4992045;28;20502;-67
2023/08/16 12:08:53;;;;;;;1.90;1.20;;;30.90;99.90;;;;;;5008853;28;20491;-66
2023/08/16 12:11:51;;;;;;;2.72;1.15;;;31.20;99.90;;;;;;5006515;28;20045;-68
2023/08/16 12:14:17;;;;;;;2.70;1.02;;;31.00;99.90;;;;;;4986748;28;20500;-67
2023/08/16 12:16:43;;;;;;;1.92;1.20;;;31.50;99.90;;;;;;4987621;28;20042;-68
2023/08/16 12:19:09;;;;;;;2.15;1.20;;;31.70;99.90;;;;;;5007984;28;20525;-68
2023/08/16 12:21:34;;;;;;;1.85;1.13;;;31.30;99.90;;;;;;5009890;28;20034;-68
2023/08/16 12:24:00;;;;;;;2.65;1.50;;;31.70;99.90;;;;;;5010581;28;20386;-68
2023/08/16 12:26:26;;;;;;;2.65;1.35;;;31.40;99.90;;;;;;5010839;28;20188;-68
2023/08/16 12:28:51;;;;;;;2.08;1.10;;;31.50;99.90;;;;;;5010801;28;20394;-68
2023/08/16 12:31:17;;;;;;;1.33;0.93;;;31.70;99.90;;;;;;5011076;28;20041;-68
2023/08/16 12:33:43;;;;;;;3.08;1.38;;;32.00;99.90;;;;;;5015206;28;20041;-67
2023/08/16 12:36:09;;;;;;;2.78;1.80;;;32.60;99.50;;;;;;5030825;28;20036;-68
2023/08/16 12:38:35;;;;;;;1.95;1.10;;;32.40;98.40;;;;;;5010405;28;20026;-68
2023/08/16 12:41:01;;;;;;;2.03;1.35;;;31.80;98.60;;;;;;4992370;28;20767;-68
2023/08/16 12:43:26;;;;;;;1.77;1.05;;;31.00;99.90;;;;;;5010160;28;20061;-69
2023/08/16 12:45:52;;;;;;;1.85;1.10;;;32.00;99.50;;;;;;5011018;28;20398;-68